Time;durP1;ratioP1;P1;durP2;ratioP2;P2;SDS_P1;SDS_P2;PMS_P1;PMS_P2;Temp;Humidity;BMP_temperature;BMP_pressure;BME280_temperature;BME280_humidity;BME280_pressure;Samples;Min_cycle;Max_cycle;Signal;HPM_P1;HPM_P2
2023/10/06 00:01:42;;;;;;;9.40;5.40;;;;;;;13.01;100.00;99736.36;109663;1250;62855;-72
2023/10/06 00:04:12;;;;;;;9.80;5.30;;;;;;;13.01;100.00;99737.44;109550;1249;59204;-72
2023/10/06 00:06:41;;;;;;;8.90;5.00;;;;;;;13.01;100.00;99739.20;109444;1249;59062;-72
2023/10/06 00:09:29;;;;;;;9.00;4.60;;;;;;;12.99;100.00;99738.94;109737;1250;66091;-72
2023/10/06 00:11:56;;;;;;;10.40;4.90;;;;;;;12.97;100.00;99734.60;109740;1249;59967;-72
2023/10/06 00:14:38;;;;;;;11.90;5.10;;;;;;;12.96;100.00;99733.96;109730;1250;63789;-71
2023/10/06 00:17:13;;;;;;;7.20;4.50;;;;;;;12.95;100.00;99732.41;109668;1249;59013;-72
2023/10/06 00:19:41;;;;;;;7.60;4.50;;;;;;;12.95;100.00;99735.27;109660;1249;59011;-72
2023/10/06 00:22:17;;;;;;;12.60;5.20;;;;;;;12.95;100.00;99735.60;109699;1249;64786;-72
2023/10/06 00:24:46;;;;;;;7.80;4.60;;;;;;;12.94;100.00;99740.11;109703;1249;59249;-71
2023/10/06 00:27:13;;;;;;;8.90;4.80;;;;;;;12.93;100.00;99739.86;109733;1249;63740;-72
2023/10/06 00:29:47;;;;;;;7.10;4.60;;;;;;;12.91;100.00;99739.09;109609;1249;58990;-71
2023/10/06 00:32:25;;;;;;;9.20;4.30;;;;;;;12.89;100.00;99737.63;109765;1250;59039;-73
2023/10/06 00:34:54;;;;;;;7.20;3.90;;;;;;;12.85;100.00;99741.60;109754;1249;65741;-73
2023/10/06 00:37:22;;;;;;;8.90;4.20;;;;;;;12.81;100.00;99745.80;109704;1250;58998;-73
2023/10/06 00:39:50;;;;;;;6.40;4.20;;;;;;;12.75;100.00;99749.91;109702;1249;64015;-73
2023/10/06 00:42:26;;;;;;;10.10;5.10;;;;;;;12.68;100.00;99751.77;109711;1250;58947;-73
2023/10/06 00:44:53;;;;;;;8.40;5.40;;;;;;;12.61;100.00;99757.08;109586;1252;59424;-72
2023/10/06 00:47:21;;;;;;;6.30;4.60;;;;;;;12.55;100.00;99761.58;109569;1249;65720;-73
2023/10/06 00:49:47;;;;;;;7.30;4.00;;;;;;;12.49;100.00;99760.50;109693;1249;59841;-72
2023/10/06 00:52:15;;;;;;;6.20;4.40;;;;;;;12.44;100.00;99758.32;109659;1250;58884;-72
2023/10/06 00:54:43;;;;;;;7.80;4.60;;;;;;;12.39;100.00;99762.91;109664;1249;59079;-72
2023/10/06 00:57:12;;;;;;;7.80;5.10;;;;;;;12.33;100.00;99766.30;109734;1250;59276;-73
2023/10/06 00:59:39;;;;;;;10.10;4.90;;;;;;;12.25;100.00;99764.98;109730;1250;66033;-73
2023/10/06 01:02:08;;;;;;;6.90;4.30;;;;;;;12.19;100.00;99768.06;109589;1250;59482;-72
2023/10/06 01:04:44;;;;;;;8.50;5.00;;;;;;;12.12;100.00;99771.84;109746;1249;64880;-73
2023/10/06 01:07:13;;;;;;;10.40;4.80;;;;;;;12.05;100.00;99770.11;109709;1249;59022;-72
2023/10/06 01:09:57;;;;;;;9.90;4.50;;;;;;;11.99;100.00;99774.77;109747;1249;58880;-73
2023/10/06 01:12:31;;;;;;;10.60;5.00;;;;;;;11.92;100.00;99778.41;109700;1250;64525;-73
2023/10/06 01:15:16;;;;;;;8.70;5.30;;;;;;;11.86;100.00;99779.48;109739;1250;59738;-72
2023/10/06 01:17:44;;;;;;;9.80;4.90;;;;;;;11.80;100.00;99779.61;109608;1249;64063;-72
2023/10/06 01:20:14;;;;;;;9.90;5.40;;;;;;;11.76;100.00;99781.46;109468;1250;59345;-72
2023/10/06 01:22:44;;;;;;;11.80;5.30;;;;;;;11.70;100.00;99788.21;109748;1249;58872;-72
2023/10/06 01:25:20;;;;;;;9.80;5.60;;;;;;;11.63;100.00;99788.61;109350;1258;66022;-73
2023/10/06 01:27:50;;;;;;;10.90;6.00;;;;;;;11.57;100.00;99787.54;109747;1250;59028;-72
2023/10/06 01:30:17;;;;;;;13.10;6.70;;;;;;;11.52;100.00;99786.23;109680;1250;62698;-73
2023/10/06 01:32:50;;;;;;;13.30;6.50;;;;;;;11.48;100.00;99788.08;109707;1249;59047;-73
2023/10/06 01:35:20;;;;;;;15.30;7.60;;;;;;;11.43;100.00;99795.48;109590;1251;58980;-73
2023/10/06 01:38:14;;;;;;;;;;;;;;;11.39;100.00;99796.10;109739;1250;66061;-72
2023/10/06 01:43:00;;;;;;;12.80;7.00;;;;;;;11.31;100.00;99801.52;109705;1249;58994;-72
2023/10/06 01:45:28;;;;;;;17.90;9.10;;;;;;;11.28;100.00;99807.55;109735;1249;59034;-72
2023/10/06 01:50:42;;;;;;;19.40;11.20;;;;;;;11.23;100.00;99815.13;109740;1249;65747;-72
2023/10/06 01:53:10;;;;;;;15.90;11.70;;;;;;;11.19;100.00;99815.52;109754;1249;59004;-72
2023/10/06 01:55:39;;;;;;;19.20;14.00;;;;;;;11.15;100.00;99817.02;109711;1250;62537;-72
2023/10/06 01:58:07;;;;;;;16.70;10.00;;;;;;;11.09;100.00;99819.64;109684;1249;58998;-72
2023/10/06 02:00:39;;;;;;;13.30;8.30;;;;;;;11.04;100.00;99820.84;109716;1250;59017;-72
2023/10/06 02:03:12;;;;;;;9.80;6.60;;;;;;;10.97;100.00;99824.22;109731;1249;66035;-72
2023/10/06 02:05:39;;;;;;;11.20;6.60;;;;;;;10.92;100.00;99821.13;109755;1249;59822;-72
2023/10/06 02:08:09;;;;;;;8.50;6.00;;;;;;;10.87;100.00;99821.38;109724;1249;59105;-72
2023/10/06 02:10:40;;;;;;;10.70;6.80;;;;;;;10.84;100.00;99820.50;109502;1250;59670;-72
2023/10/06 02:13:07;;;;;;;8.90;6.40;;;;;;;10.81;100.00;99822.48;109757;1250;58959;-72
2023/10/06 02:15:33;;;;;;;7.90;5.60;;;;;;;10.78;100.00;99827.40;109756;1250;59445;-72
2023/10/06 02:18:00;;;;;;;9.40;5.80;;;;;;;10.76;100.00;99831.61;109720;1250;61513;-72
2023/10/06 02:22:55;;;;;;;9.80;5.20;;;;;;;10.73;100.00;99831.78;109728;1249;58924;-72
2023/10/06 02:25:22;;;;;;;8.50;6.20;;;;;;;10.69;100.00;99825.04;109731;1249;59018;-73
2023/10/06 02:27:50;;;;;;;13.70;6.00;;;;;;;10.65;100.00;99825.61;109736;1250;64853;-73
2023/10/06 02:30:19;;;;;;;7.90;5.10;;;;;;;10.61;100.00;99825.66;109715;1250;60194;-73
2023/10/06 02:32:46;;;;;;;12.30;5.30;;;;;;;10.55;100.00;99829.69;109702;1250;63738;-72
2023/10/06 02:35:13;;;;;;;13.10;5.60;;;;;;;10.50;100.00;99832.84;109566;1249;58988;-72
2023/10/06 02:37:39;;;;;;;8.80;5.70;;;;;;;10.44;100.00;99829.06;109714;1249;59048;-72
2023/10/06 02:40:11;;;;;;;8.80;5.60;;;;;;;10.40;100.00;99825.37;109691;1249;58963;-72
2023/10/06 02:42:52;;;;;;;7.80;5.40;;;;;;;10.36;100.00;99823.27;109704;1249;59015;-72
2023/10/06 02:45:20;;;;;;;9.60;5.80;;;;;;;10.32;100.00;99827.74;109711;1249;65247;-73
2023/10/06 02:47:47;;;;;;;7.60;5.70;;;;;;;10.27;100.00;99832.61;109362;1250;59074;-73
2023/10/06 02:50:20;;;;;;;8.10;5.40;;;;;;;10.22;100.00;99834.44;109711;1251;58961;-73
2023/10/06 02:52:47;;;;;;;7.80;5.90;;;;;;;10.17;100.00;99838.61;109723;1249;64882;-73
2023/10/06 02:55:19;;;;;;;8.00;6.10;;;;;;;10.12;100.00;99839.92;109708;1250;59032;-72
2023/10/06 02:57:52;;;;;;;10.10;6.20;;;;;;;10.07;100.00;99837.69;109340;1249;64172;-72
2023/10/06 03:02:56;;;;;;;11.60;6.00;;;;;;;9.91;100.00;99847.58;109694;1251;58855;-72
2023/10/06 03:05:33;;;;;;;9.90;5.80;;;;;;;9.83;100.00;99853.63;109426;1250;66062;-72
2023/10/06 03:08:08;;;;;;;7.80;5.60;;;;;;;9.78;100.00;99859.60;109770;1249;59856;-72
2023/10/06 03:10:42;;;;;;;10.20;6.40;;;;;;;9.73;100.00;99860.58;109520;1249;62883;-72
2023/10/06 03:13:10;;;;;;;10.10;6.70;;;;;;;9.69;100.00;99855.95;109514;1253;59018;-72
2023/10/06 03:15:45;;;;;;;10.50;7.10;;;;;;;9.66;100.00;99854.81;109752;1249;61174;-72
2023/10/06 03:18:15;;;;;;;8.80;6.80;;;;;;;9.64;100.00;99852.11;109756;1250;65870;-72
2023/10/06 03:20:49;;;;;;;10.00;6.60;;;;;;;9.62;100.00;99854.34;109761;1250;60005;-72
2023/10/06 03:26:03;;;;;;;11.90;6.60;;;;;;;9.60;100.00;99855.70;109558;1249;58984;-73
2023/10/06 03:28:36;;;;;;;10.90;7.10;;;;;;;9.59;100.00;99855.37;109700;1249;59044;-72
2023/10/06 03:33:49;;;;;;;11.10;7.30;;;;;;;9.55;100.00;99855.89;109698;1249;60270;-72
2023/10/06 03:36:21;;;;;;;9.20;6.50;;;;;;;9.53;100.00;99858.34;109542;1249;65309;-72
2023/10/06 03:38:56;;;;;;;9.00;6.30;;;;;;;9.50;100.00;99857.23;109534;1250;59036;-72
2023/10/06 03:41:32;;;;;;;12.20;6.50;;;;;;;9.46;100.00;99855.13;109736;1249;59057;-73
2023/10/06 03:44:04;;;;;;;14.30;7.30;;;;;;;9.41;100.00;99849.33;109739;1250;66172;-73
2023/10/06 03:46:38;;;;;;;8.50;6.50;;;;;;;9.36;100.00;99850.78;109546;1250;60429;-73
2023/10/06 03:49:05;;;;;;;8.20;6.40;;;;;;;9.31;100.00;99849.11;109673;1249;62841;-72
2023/10/06 03:51:40;;;;;;;7.80;5.50;;;;;;;9.24;100.00;99848.89;109740;1249;59129;-72
2023/10/06 03:54:10;;;;;;;7.60;5.70;;;;;;;9.16;100.00;99851.23;109753;1250;58932;-72
2023/10/06 03:56:36;;;;;;;8.00;5.20;;;;;;;9.08;100.00;99852.13;109762;1250;66124;-72
2023/10/06 03:59:12;;;;;;;11.60;5.30;;;;;;;9.01;100.00;99849.27;109701;1249;59967;-72
2023/10/06 04:01:39;;;;;;;8.50;5.40;;;;;;;8.93;100.00;99846.80;109530;1249;62888;-72
2023/10/06 04:04:07;;;;;;;7.60;5.00;;;;;;;8.88;100.00;99848.28;109688;1249;59034;-72
2023/10/06 04:06:35;;;;;;;12.10;6.80;;;;;;;8.83;100.00;99852.77;109667;1250;58912;-72
2023/10/06 04:09:02;;;;;;;8.50;7.20;;;;;;;8.77;100.00;99851.08;109690;1249;66096;-72
2023/10/06 04:11:31;;;;;;;12.10;7.00;;;;;;;8.72;100.00;99853.79;109693;1251;59480;-72
2023/10/06 04:13:58;;;;;;;12.00;7.50;;;;;;;8.68;100.00;99854.19;109678;1250;64069;-72
2023/10/06 04:16:25;;;;;;;15.80;9.80;;;;;;;8.65;100.00;99856.08;109672;1250;58896;-72
2023/10/06 04:18:51;;;;;;;13.80;9.00;;;;;;;8.62;100.00;99858.69;109741;1250;58868;-72
2023/10/06 04:21:18;;;;;;;13.10;7.90;;;;;;;8.58;100.00;99864.35;109710;1249;59069;-72
2023/10/06 04:23:44;;;;;;;13.70;8.60;;;;;;;8.52;100.00;99866.23;109725;1249;59023;-73
2023/10/06 04:26:16;;;;;;;17.10;10.60;;;;;;;8.45;100.00;99865.48;109750;1249;64060;-72
2023/10/06 04:28:47;;;;;;;11.20;9.20;;;;;;;8.40;100.00;99866.57;109683;1251;59040;-71
2023/10/06 04:31:15;;;;;;;12.90;9.40;;;;;;;8.37;100.00;99868.10;109696;1250;58938;-72
2023/10/06 04:33:41;;;;;;;13.70;9.30;;;;;;;8.34;100.00;99873.52;109743;1249;66084;-72
2023/10/06 04:36:09;;;;;;;14.90;8.60;;;;;;;8.31;100.00;99876.66;109523;1250;59063;-73
2023/10/06 04:38:38;;;;;;;20.70;9.90;;;;;;;8.27;100.00;99876.66;109709;1249;65067;-73
2023/10/06 04:41:09;;;;;;;17.40;8.60;;;;;;;8.25;100.00;99879.78;109692;1250;59018;-73
2023/10/06 04:43:36;;;;;;;11.10;7.50;;;;;;;8.22;100.00;99880.77;109670;1249;58994;-73
2023/10/06 04:46:06;;;;;;;19.50;10.60;;;;;;;8.18;100.00;99880.77;109764;1250;66027;-73
2023/10/06 04:48:35;;;;;;;16.50;10.30;;;;;;;8.16;100.00;99879.44;109779;1250;59090;-73
2023/10/06 04:51:06;;;;;;;15.40;12.20;;;;;;;8.14;100.00;99884.27;109700;1250;62425;-72
2023/10/06 04:53:35;;;;;;;24.00;17.50;;;;;;;8.14;100.00;99889.96;109712;1250;59467;-72
2023/10/06 04:56:03;;;;;;;16.70;12.80;;;;;;;8.15;100.00;99892.41;109684;1250;59096;-74
2023/10/06 04:58:31;;;;;;;15.60;11.70;;;;;;;8.16;100.00;99893.98;109539;1251;65839;-73
2023/10/06 05:01:00;;;;;;;11.80;9.30;;;;;;;8.15;100.00;99892.21;109787;1250;60187;-73
2023/10/06 05:03:27;;;;;;;15.00;8.10;;;;;;;8.12;100.00;99890.20;109502;1250;64190;-72
2023/10/06 05:05:57;;;;;;;9.60;7.00;;;;;;;8.11;100.00;99889.73;109793;1250;59204;-73
2023/10/06 05:08:24;;;;;;;11.30;6.80;;;;;;;8.11;100.00;99892.59;109738;1250;58941;-73
2023/10/06 05:10:55;;;;;;;10.60;7.60;;;;;;;8.12;100.00;99895.56;109715;1249;66075;-73
2023/10/06 05:13:22;;;;;;;13.10;9.30;;;;;;;8.13;100.00;99904.70;109711;1250;60113;-73
2023/10/06 05:15:50;;;;;;;15.70;9.90;;;;;;;8.16;100.00;99910.08;109668;1250;59103;-73
2023/10/06 05:18:16;;;;;;;16.60;12.80;;;;;;;8.19;100.00;99908.55;109681;1250;59057;-73
2023/10/06 05:20:43;;;;;;;20.90;14.40;;;;;;;8.21;100.00;99909.69;109735;1250;58904;-71
2023/10/06 05:23:14;;;;;;;30.70;18.20;;;;;;;8.22;100.00;99916.36;109714;1249;66330;-73
2023/10/06 05:25:42;;;;;;;28.50;18.20;;;;;;;8.25;100.00;99917.64;109700;1250;60165;-73
2023/10/06 05:28:10;;;;;;;28.30;17.40;;;;;;;8.30;100.00;99915.83;109747;1250;64068;-74
2023/10/06 05:30:38;;;;;;;23.30;15.00;;;;;;;8.37;100.00;99914.65;109735;1250;59002;-73
2023/10/06 05:33:05;;;;;;;20.80;13.10;;;;;;;8.45;100.00;99917.18;109743;1250;58980;-74
2023/10/06 05:35:38;;;;;;;17.20;12.00;;;;;;;8.52;100.00;99919.16;109714;1250;66123;-73
2023/10/06 05:38:08;;;;;;;14.90;11.20;;;;;;;8.62;100.00;99919.98;109756;1250;58970;-73
2023/10/06 05:40:35;;;;;;;;;;;;;;;8.72;100.00;99926.79;109721;1249;64139;-73
2023/10/06 05:43:02;;;;;;;17.10;12.10;;;;;;;8.80;100.00;99929.99;109654;1253;59074;-74
2023/10/06 05:45:29;;;;;;;16.60;12.80;;;;;;;8.92;100.00;99934.05;109683;1250;61416;-73
2023/10/06 05:48:06;;;;;;;15.90;13.80;;;;;;;9.06;100.00;99933.08;109758;1250;66053;-73
2023/10/06 05:50:35;;;;;;;24.60;15.80;;;;;;;9.21;100.00;99935.20;109360;1250;59148;-72
2023/10/06 05:53:08;;;;;;;25.90;16.30;;;;;;;9.35;100.00;99939.00;109684;1250;64101;-73
2023/10/06 05:55:35;;;;;;;23.70;14.90;;;;;;;9.51;100.00;99941.77;109694;1250;59197;-72
2023/10/06 05:58:03;;;;;;;18.60;13.40;;;;;;;9.64;100.00;99940.64;109725;1249;58952;-72
2023/10/06 06:00:30;;;;;;;16.60;13.00;;;;;;;9.77;100.00;99939.48;109711;1250;66031;-73
2023/10/06 06:03:04;;;;;;;18.90;13.00;;;;;;;9.90;100.00;99940.11;109578;1250;59220;-73
2023/10/06 06:05:33;;;;;;;18.30;12.90;;;;;;;10.04;100.00;99951.29;109758;1250;62520;-73
2023/10/06 06:08:00;;;;;;;16.80;12.80;;;;;;;10.17;100.00;99959.38;109678;1249;58948;-73
2023/10/06 06:10:30;;;;;;;18.70;12.70;;;;;;;10.26;100.00;99960.69;109719;1249;58934;-73
2023/10/06 06:12:57;;;;;;;18.50;12.40;;;;;;;10.32;100.00;99959.86;109741;1250;64882;-73
2023/10/06 06:15:25;;;;;;;14.40;12.60;;;;;;;10.39;100.00;99959.86;109782;1249;60248;-73
2023/10/06 06:17:53;;;;;;;17.70;13.10;;;;;;;10.49;100.00;99956.37;109447;1250;63736;-73
2023/10/06 06:20:22;;;;;;;16.60;12.30;;;;;;;10.59;100.00;99953.36;109743;1251;59060;-73
2023/10/06 06:23:02;;;;;;;16.50;12.40;;;;;;;10.69;100.00;99961.70;109733;1250;58911;-73
2023/10/06 06:25:29;;;;;;;;;;;;;;;10.82;100.00;99968.33;109711;1250;66900;-73
2023/10/06 06:27:59;;;;;;;19.00;12.00;;;;;;;10.98;100.00;99973.02;109691;1250;60126;-73
2023/10/06 06:30:26;;;;;;;;;;;;;;;11.23;100.00;99982.73;109696;1251;64065;-73
2023/10/06 06:32:54;;;;;;;14.70;12.20;;;;;;;11.41;100.00;99989.90;109710;1250;58954;-73
2023/10/06 06:35:22;;;;;;;13.50;11.50;;;;;;;11.55;100.00;99989.67;109672;1249;58968;-73
2023/10/06 06:37:51;;;;;;;15.30;12.00;;;;;;;11.64;100.00;99994.89;109712;1249;64480;-73
2023/10/06 06:40:21;;;;;;;18.10;12.20;;;;;;;11.69;100.00;100001.93;109561;1249;60180;-69
2023/10/06 06:42:48;;;;;;;17.50;15.70;;;;;;;11.71;100.00;100006.58;109684;1251;62902;-68
2023/10/06 06:45:15;;;;;;;17.40;15.40;;;;;;;11.78;100.00;100009.95;109600;1250;162987;-68
2023/10/06 06:47:42;;;;;;;23.70;16.70;;;;;;;11.86;100.00;100007.39;109726;1251;58969;-68
2023/10/06 06:50:15;;;;;;;18.00;16.10;;;;;;;11.91;100.00;100004.27;109391;1249;66323;-68
2023/10/06 06:52:43;;;;;;;19.40;16.60;;;;;;;11.98;100.00;100006.21;109799;1250;60242;-68
2023/10/06 06:55:13;;;;;;;31.10;17.20;;;;;;;12.06;100.00;100012.50;109683;1251;64076;-68
2023/10/06 06:57:42;;;;;;;19.90;14.70;;;;;;;12.15;100.00;100014.31;109541;1255;59014;-67
2023/10/06 07:00:15;;;;;;;16.00;12.30;;;;;;;12.25;100.00;100010.35;109558;1250;59030;-67
2023/10/06 07:02:47;;;;;;;16.80;12.30;;;;;;;12.43;100.00;100010.91;109412;1250;66122;-68
2023/10/06 07:05:15;;;;;;;14.40;10.40;;;;;;;12.59;100.00;100012.47;109346;1259;60637;-68
2023/10/06 07:07:43;;;;;;;17.30;11.50;;;;;;;12.73;100.00;100012.17;109706;1251;62501;-68
2023/10/06 07:10:13;;;;;;;13.40;11.50;;;;;;;12.86;100.00;100011.25;109701;1249;58997;-67
2023/10/06 07:12:44;;;;;;;15.10;11.50;;;;;;;12.91;100.00;100014.11;109573;1249;59022;-68
2023/10/06 07:15:17;;;;;;;17.30;11.60;;;;;;;12.93;100.00;100019.15;109753;1249;66007;-68
2023/10/06 07:17:46;;;;;;;17.90;12.70;;;;;;;13.00;100.00;100019.30;109747;1250;61085;-68
2023/10/06 07:20:16;;;;;;;16.40;12.60;;;;;;;13.05;100.00;100017.77;109539;1251;64092;-68
2023/10/06 07:22:45;;;;;;;14.00;12.60;;;;;;;13.06;100.00;100018.95;109705;1250;59029;-67
2023/10/06 07:25:15;;;;;;;14.60;12.80;;;;;;;13.04;100.00;100021.22;109730;1251;59205;-67
2023/10/06 07:27:44;;;;;;;17.00;13.90;;;;;;;13.09;100.00;100027.51;109585;1250;66770;-68
2023/10/06 07:30:14;;;;;;;15.10;12.40;;;;;;;13.18;100.00;100030.88;109592;1249;60191;-67
2023/10/06 07:32:45;;;;;;;14.40;12.60;;;;;;;13.32;100.00;100026.65;109433;1253;62814;-68
2023/10/06 07:35:13;;;;;;;15.00;12.00;;;;;;;13.48;100.00;100028.86;109451;1253;59061;-68
2023/10/06 07:37:43;;;;;;;14.30;11.50;;;;;;;13.59;100.00;100023.38;109534;1254;58972;-68
2023/10/06 07:40:14;;;;;;;14.20;12.20;;;;;;;13.67;100.00;100019.84;109338;1254;66234;-68
2023/10/06 07:42:41;;;;;;;16.60;11.60;;;;;;;13.77;100.00;100012.75;109497;1252;60697;-68
2023/10/06 07:45:09;;;;;;;13.50;11.50;;;;;;;13.95;100.00;100010.36;109494;1253;63086;-67
2023/10/06 07:47:39;;;;;;;16.60;12.00;;;;;;;14.07;100.00;100010.65;109091;1253;59099;-68
2023/10/06 07:50:06;;;;;;;14.70;10.40;;;;;;;14.30;100.00;100011.30;109480;1254;58977;-68
2023/10/06 07:52:33;;;;;;;16.00;11.20;;;;;;;14.51;100.00;100013.33;109257;1253;64745;-68
2023/10/06 07:55:00;;;;;;;14.20;11.60;;;;;;;14.65;100.00;100013.28;109523;1254;60181;-67
2023/10/06 07:57:31;;;;;;;14.50;10.70;;;;;;;14.77;100.00;100009.79;109437;1254;62497;-68
2023/10/06 08:00:04;;;;;;;13.70;10.40;;;;;;;14.87;100.00;100011.06;109463;1253;59063;-68
2023/10/06 08:02:30;;;;;;;11.60;9.50;;;;;;;14.94;100.00;100016.84;109485;1254;59067;-68
2023/10/06 08:04:57;;;;;;;11.90;8.80;;;;;;;15.01;100.00;100016.92;109826;1251;66100;-67
2023/10/06 08:07:30;;;;;;;14.60;9.60;;;;;;;15.08;100.00;100013.55;109842;1251;58940;-68
2023/10/06 08:09:59;;;;;;;12.50;9.40;;;;;;;15.09;100.00;100015.06;109833;1250;64605;-68
2023/10/06 08:12:29;;;;;;;13.40;8.60;;;;;;;15.11;100.00;100016.94;109415;1250;58942;-68
2023/10/06 08:14:56;;;;;;;11.00;8.50;;;;;;;15.23;100.00;100012.86;109838;1250;59827;-68
2023/10/06 08:17:22;;;;;;;8.90;7.80;;;;;;;15.33;100.00;100002.10;109826;1253;59049;-68
2023/10/06 08:19:49;;;;;;;14.50;8.10;;;;;;;15.42;100.00;100000.79;109867;1251;58957;-68
2023/10/06 08:22:15;;;;;;;8.40;7.50;;;;;;;15.53;100.00;99994.25;109803;1250;59000;-67
2023/10/06 08:24:43;;;;;;;10.90;7.50;;;;;;;15.68;100.00;99992.35;109826;1251;58969;-68
2023/10/06 08:27:09;;;;;;;8.40;6.90;;;;;;;15.83;100.00;99991.45;109781;1249;58998;-68
2023/10/06 08:29:35;;;;;;;7.60;6.80;;;;;;;15.95;100.00;99989.85;109786;1250;59174;-67
2023/10/06 08:32:02;;;;;;;9.00;7.30;;;;;;;16.03;100.00;99991.05;109748;1249;61262;-67
2023/10/06 08:34:30;;;;;;;9.00;6.40;;;;;;;16.09;100.00;99986.52;109714;1250;64079;-67
2023/10/06 08:37:00;;;;;;;8.00;6.90;;;;;;;16.10;100.00;99985.88;109706;1249;58941;-69
2023/10/06 08:39:38;;;;;;;;;;;;;;;16.14;100.00;99986.46;109741;1249;59068;-67
2023/10/06 08:42:09;;;;;;;7.50;5.00;;;;;;;16.20;100.00;99986.52;109726;1249;66084;-66
2023/10/06 08:44:39;;;;;;;8.40;4.40;;;;;;;16.31;100.00;99988.22;109706;1250;59874;-66
2023/10/06 08:47:09;;;;;;;6.10;4.00;;;;;;;16.47;100.00;99988.29;109754;1251;63748;-66
2023/10/06 08:49:37;;;;;;;6.10;3.80;;;;;;;16.66;100.00;99984.00;109750;1250;58935;-66
2023/10/06 08:52:06;;;;;;;4.20;3.70;;;;;;;16.85;100.00;99978.77;109775;1249;59052;-65
2023/10/06 08:54:34;;;;;;;4.30;3.50;;;;;;;17.05;100.00;99982.42;109755;1249;65729;-65
2023/10/06 08:57:01;;;;;;;7.80;4.20;;;;;;;17.20;100.00;99987.00;109783;1249;59311;-66
2023/10/06 08:59:27;;;;;;;4.20;2.90;;;;;;;17.31;100.00;99991.88;109790;1250;62882;-66
2023/10/06 09:01:54;;;;;;;6.50;3.00;;;;;;;17.38;100.00;99990.80;109719;1249;59063;-66
2023/10/06 09:04:21;;;;;;;5.40;2.90;;;;;;;17.44;100.00;99988.34;109532;1250;59225;-67
2023/10/06 09:07:12;;;;;;;5.70;2.80;;;;;;;17.36;100.00;99993.45;109779;1249;65762;-66
2023/10/06 09:09:40;;;;;;;5.10;3.20;;;;;;;17.07;100.00;99995.56;109732;1250;59844;-66
2023/10/06 09:12:09;;;;;;;5.30;2.90;;;;;;;16.83;100.00;99996.23;109752;1249;65079;-66
2023/10/06 09:14:52;;;;;;;7.20;3.50;;;;;;;16.57;100.00;99993.28;109745;1250;59029;-65
2023/10/06 09:17:30;;;;;;;7.40;2.80;;;;;;;16.56;100.00;99988.73;109749;1251;58986;-65
2023/10/06 09:19:59;;;;;;;5.00;2.80;;;;;;;16.70;100.00;99991.22;109544;1249;66071;-65
2023/10/06 09:22:29;;;;;;;7.10;2.60;;;;;;;16.76;100.00;99986.12;109546;1250;60079;-65
2023/10/06 09:24:59;;;;;;;5.30;2.60;;;;;;;16.90;100.00;99979.11;109660;1249;62542;-66
2023/10/06 09:27:26;;;;;;;6.70;3.30;;;;;;;17.08;100.00;99981.86;109800;1250;59210;-65
2023/10/06 09:30:00;;;;;;;4.40;2.40;;;;;;;17.25;100.00;99985.75;109696;1249;61156;-66
2023/10/06 09:32:27;;;;;;;5.40;2.20;;;;;;;17.27;100.00;99988.28;109750;1249;65737;-66
2023/10/06 09:34:57;;;;;;;5.60;2.30;;;;;;;17.24;100.00;99992.44;109780;1249;58996;-66
2023/10/06 09:37:24;;;;;;;5.40;2.30;;;;;;;17.32;100.00;99990.41;109684;1249;73513;-65
2023/10/06 09:40:10;;;;;;;5.60;2.90;;;;;;;17.34;100.00;99983.75;109524;1250;58999;-66
2023/10/06 09:42:37;;;;;;;5.40;3.00;;;;;;;17.30;100.00;99989.66;109726;1249;59386;-66
2023/10/06 09:45:08;;;;;;;7.30;2.90;;;;;;;17.50;100.00;99982.70;109532;1251;64834;-66
2023/10/06 09:47:38;;;;;;;4.80;2.30;;;;;;;17.84;100.00;99977.62;109545;1249;61454;-66
2023/10/06 09:50:06;;;;;;;;;;;;;;;18.12;100.00;99977.33;109603;1249;63736;-66
2023/10/06 09:52:34;;;;;;;3.60;2.30;;;;;;;18.25;100.00;99977.09;109680;1250;59012;-67
2023/10/06 09:55:04;;;;;;;4.50;2.60;;;;;;;18.38;100.00;99975.88;109774;1249;59058;-66
2023/10/06 09:57:32;;;;;;;3.40;2.00;;;;;;;18.47;100.00;99971.30;109741;1250;64870;-65
2023/10/06 10:00:00;;;;;;;3.00;1.70;;;;;;;18.41;100.00;99970.34;109771;1249;60192;-65
2023/10/06 10:02:29;;;;;;;6.40;2.80;;;;;;;18.30;100.00;99972.42;109709;1249;64129;-66
2023/10/06 10:04:59;;;;;;;5.30;2.80;;;;;;;18.21;100.00;99971.56;109761;1249;59301;-67
2023/10/06 10:07:28;;;;;;;;;;;;;;;18.05;100.00;99976.61;109818;1249;61169;-67
2023/10/06 10:09:57;;;;;;;5.40;2.60;;;;;;;17.85;100.00;99972.81;109723;1250;64668;-67
2023/10/06 10:12:40;;;;;;;5.00;2.30;;;;;;;17.72;100.00;99966.88;109743;1250;58979;-67
2023/10/06 10:15:37;;;;;;;5.20;2.10;;;;;;;17.65;100.00;99967.31;109758;1250;63889;-67
2023/10/06 10:18:14;;;;;;;5.80;2.50;;;;;;;17.52;100.00;99960.02;109736;1250;59234;-67
2023/10/06 10:20:40;;;;;;;2.70;2.00;;;;;;;17.59;100.00;99950.70;109546;1250;59195;-67
2023/10/06 10:23:14;;;;;;;5.00;2.40;;;;;;;17.67;100.00;99948.98;109409;1250;66200;-67
2023/10/06 10:25:41;;;;;;;3.70;2.20;;;;;;;17.63;100.00;99945.89;109711;1249;59991;-67
2023/10/06 10:28:14;;;;;;;5.00;2.30;;;;;;;17.66;100.00;99939.73;109727;1249;62824;-66
2023/10/06 10:30:49;;;;;;;6.30;2.70;;;;;;;17.79;100.00;99933.79;109755;1249;59008;-66
2023/10/06 10:33:24;;;;;;;5.10;2.40;;;;;;;17.89;100.00;99924.52;109721;1250;61522;-66
2023/10/06 10:36:12;;;;;;;4.40;2.20;;;;;;;18.15;100.00;99918.58;109775;1250;66079;-66
2023/10/06 10:38:40;;;;;;;5.20;2.30;;;;;;;18.29;100.00;99920.45;109823;1249;59835;-67
2023/10/06 10:41:07;;;;;;;6.00;2.60;;;;;;;18.30;100.00;99918.08;109745;1249;64032;-67
2023/10/06 10:43:37;;;;;;;3.80;2.20;;;;;;;18.43;100.00;99909.78;109680;1249;59037;-66
2023/10/06 10:46:04;;;;;;;4.60;2.20;;;;;;;18.65;100.00;99898.69;109741;1249;58973;-66
2023/10/06 10:48:47;;;;;;;6.40;2.40;;;;;;;18.88;100.00;99887.37;109710;1250;65025;-67
2023/10/06 10:51:14;;;;;;;6.20;2.60;;;;;;;18.98;100.00;99882.55;109815;1250;59017;-67
2023/10/06 10:53:44;;;;;;;4.50;2.70;;;;;;;18.98;100.00;99872.29;109754;1249;64134;-67
2023/10/06 10:56:25;;;;;;;5.70;2.60;;;;;;;18.98;100.00;99864.69;109754;1249;59059;-66
2023/10/06 10:58:53;;;;;;;3.50;2.70;;;;;;;18.98;100.00;99871.59;109782;1250;59162;-66
2023/10/06 11:01:24;;;;;;;3.60;2.30;;;;;;;18.84;100.00;99873.52;109536;1250;66149;-66
2023/10/06 11:04:09;;;;;;;4.50;2.20;;;;;;;18.75;100.00;99869.80;109781;1250;59827;-67
2023/10/06 11:06:37;;;;;;;3.10;1.90;;;;;;;18.76;100.00;99858.35;109716;1250;62913;-67
2023/10/06 11:09:12;;;;;;;5.30;2.40;;;;;;;18.74;100.00;99854.04;109784;1249;59028;-67
2023/10/06 11:11:39;;;;;;;6.00;2.50;;;;;;;18.60;100.00;99860.45;109732;1249;58991;-67
2023/10/06 11:14:05;;;;;;;6.60;2.30;;;;;;;18.49;100.00;99851.17;109771;1249;65265;-67
2023/10/06 11:16:32;;;;;;;3.70;2.10;;;;;;;18.47;100.00;99847.02;109801;1249;59028;-67
2023/10/06 11:18:59;;;;;;;3.30;2.30;;;;;;;18.48;100.00;99847.82;109740;1250;64021;-66
2023/10/06 11:21:26;;;;;;;4.10;2.20;;;;;;;18.46;100.00;99855.04;109737;1250;59169;-67
2023/10/06 11:23:53;;;;;;;4.50;2.30;;;;;;;18.44;100.00;99854.75;109718;1250;59311;-66
2023/10/06 11:26:32;;;;;;;5.10;2.30;;;;;;;18.44;100.00;99856.80;109741;1250;64953;-65
2023/10/06 11:29:00;;;;;;;4.80;2.30;;;;;;;18.46;100.00;99848.73;109830;1250;59059;-66
2023/10/06 11:31:29;;;;;;;5.70;2.30;;;;;;;18.49;100.00;99845.96;109743;1249;62501;-66
2023/10/06 11:33:57;;;;;;;3.10;2.10;;;;;;;18.53;100.00;99836.60;109463;1249;59035;-66
2023/10/06 11:36:24;;;;;;;5.10;2.40;;;;;;;18.55;100.00;99834.44;109778;1249;59120;-66
2023/10/06 11:38:50;;;;;;;3.80;2.10;;;;;;;18.55;100.00;99834.24;109796;1250;59023;-66
2023/10/06 11:41:23;;;;;;;3.30;1.80;;;;;;;18.51;100.00;99835.70;109771;1249;59838;-66
2023/10/06 11:43:54;;;;;;;5.00;2.60;;;;;;;18.46;100.00;99836.85;109784;1249;63751;-66